Cook, MN (55723)

1:54 PM CST on February 08, 2016 (GMT -0600)
Cook Municipal | | Change Station
CLOSE
Current Station
Airport
Location: Cook,
Elevation: 1325 ft
Nearby Weather Stations

Elev 1325 ft 47.82 °N, 92.69 °W | Updated 19 minutes ago

Overcast
Overcast
7 °F
Feels Like -11 °F
N
15
Wind Variable Wind from WNW
Gusts 20 mph

Today
High -- | Low -- °F
--% Chance of Precip.
Yesterday
High -- | Low -- °F
Precip. -- in
Pressure 29.91 in
Visibility 4.0 miles
Clouds Mostly Cloudy 2300 ft
Overcast 3500 ft
Windchill -11 °F
Dew Point 0 °F
Humidity 72%
Rainfall 0.00 in
Snow Depth Not available.
7:29 AM 5:22 PM
New Moon, 0% visible
METAR KCQM 081935Z AUTO 30013G17KT 4SM -SN BKN023 OVC035 M14/M18 A2991 RMK AO2
Pressure 29.91 in
Visibility 4.0 miles
Clouds Mostly Cloudy 2300 ft
Overcast 3500 ft
Windchill -11 °F
Dew Point 0 °F
Humidity 72%
Rainfall 0.00 in
Snow Depth Not available.
7:29 AM 5:22 PM
New Moon, 0% visible
METAR KCQM 081935Z AUTO 30013G17KT 4SM -SN BKN023 OVC035 M14/M18 A2991 RMK AO2

10-Day Weather Forecast

Almanac

Astronomy

Feb. 08, 2016 Rise Set
Actual Time
Civil Twilight
Nautical Twilight
Astronomical Twilight
Moon
Length of Visible Light
Length of Day
Tomorrow will be .
, % of the Moon is Illuminated

Today's Extremes

State Highs State Lows

Community

WunderPhotos

Upload Photos

1,891,499 photos uploaded!

WunderBlog® & News

Nearby

Air Quality

  Air Quality AQ Index Pollutant
Not available.

Snow Depth

Station Depth Elevation

Earthquake Activity

City Distance Mag. Time & Date
Minimum magnitude displayed is 2.5.

Coastal Water Temperatures

Place Temperature

Stations

Nearby Weather Stations

Station Location Temp. Windchill Dew Point Humidity Wind Precip. Elev Updated Type
                   

Watches & Warnings

There are currently no watches in effect.